sensor_id;sensor_type;location;lat;lon;timestamp;temperature;humidity
72883;DHT22;61017;37.812;-122.286;2023-04-09T00:00:24;14.60;88.50
72883;DHT22;61017;37.812;-122.286;2023-04-09T00:01:56;14.60;88.40
72883;DHT22;61017;37.812;-122.286;2023-04-09T00:03:30;14.60;88.30
72883;DHT22;61017;37.812;-122.286;2023-04-09T00:05:03;14.60;88.30
72883;DHT22;61017;37.812;-122.286;2023-04-09T00:06:35;14.60;88.30
72883;DHT22;61017;37.812;-122.286;2023-04-09T00:08:09;14.60;88.10
72883;DHT22;61017;37.812;-122.286;2023-04-09T00:09:44;14.60;88.00
72883;DHT22;61017;37.812;-122.286;2023-04-09T00:11:16;14.60;88.00
72883;DHT22;61017;37.812;-122.286;2023-04-09T00:12:47;14.60;87.90
72883;DHT22;61017;37.812;-122.286;2023-04-09T00:14:19;14.60;87.90
72883;DHT22;61017;37.812;-122.286;2023-04-09T00:15:50;14.60;88.00
72883;DHT22;61017;37.812;-122.286;2023-04-09T00:17:22;14.60;87.90
72883;DHT22;61017;37.812;-122.286;2023-04-09T00:18:53;14.60;87.90
72883;DHT22;61017;37.812;-122.286;2023-04-09T00:20:25;14.60;88.00
72883;DHT22;61017;37.812;-122.286;2023-04-09T00:21:57;14.60;88.00
72883;DHT22;61017;37.812;-122.286;2023-04-09T00:23:28;14.60;88.00
72883;DHT22;61017;37.812;-122.286;2023-04-09T00:25:00;14.60;88.00
72883;DHT22;61017;37.812;-122.286;2023-04-09T00:26:31;14.60;88.10
72883;DHT22;61017;37.812;-122.286;2023-04-09T00:28:03;14.60;88.10
72883;DHT22;61017;37.812;-122.286;2023-04-09T00:29:38;14.60;88.00
72883;DHT22;61017;37.812;-122.286;2023-04-09T00:31:12;14.70;88.30
72883;DHT22;61017;37.812;-122.286;2023-04-09T00:32:43;14.70;88.20
72883;DHT22;61017;37.812;-122.286;2023-04-09T00:34:15;14.60;88.00
72883;DHT22;61017;37.812;-122.286;2023-04-09T00:35:47;14.60;88.10
72883;DHT22;61017;37.812;-122.286;2023-04-09T00:37:18;14.60;88.10
72883;DHT22;61017;37.812;-122.286;2023-04-09T00:38:50;14.60;88.10
72883;DHT22;61017;37.812;-122.286;2023-04-09T00:40:22;14.60;88.10
72883;DHT22;61017;37.812;-122.286;2023-04-09T00:41:58;14.70;88.20
72883;DHT22;61017;37.812;-122.286;2023-04-09T00:43:30;14.60;88.10
72883;DHT22;61017;37.812;-122.286;2023-04-09T00:45:05;14.60;88.10
72883;DHT22;61017;37.812;-122.286;2023-04-09T00:46:37;14.70;88.20
72883;DHT22;61017;37.812;-122.286;2023-04-09T00:48:12;14.60;88.00
72883;DHT22;61017;37.812;-122.286;2023-04-09T00:49:44;14.60;88.00
72883;DHT22;61017;37.812;-122.286;2023-04-09T00:51:15;14.60;88.00
72883;DHT22;61017;37.812;-122.286;2023-04-09T00:52:47;14.60;88.00
72883;DHT22;61017;37.812;-122.286;2023-04-09T00:54:19;14.60;88.00
72883;DHT22;61017;37.812;-122.286;2023-04-09T00:55:52;14.60;87.90
72883;DHT22;61017;37.812;-122.286;2023-04-09T00:57:23;14.70;88.10
72883;DHT22;61017;37.812;-122.286;2023-04-09T00:58:55;14.60;88.00
72883;DHT22;61017;37.812;-122.286;2023-04-09T01:00:27;14.60;88.00
72883;DHT22;61017;37.812;-122.286;2023-04-09T01:01:58;14.60;88.10
72883;DHT22;61017;37.812;-122.286;2023-04-09T01:03:30;14.60;88.00
72883;DHT22;61017;37.812;-122.286;2023-04-09T01:05:02;14.70;88.00
72883;DHT22;61017;37.812;-122.286;2023-04-09T01:11:46;14.60;87.90
72883;DHT22;61017;37.812;-122.286;2023-04-09T01:13:40;14.60;87.90
72883;DHT22;61017;37.812;-122.286;2023-04-09T01:15:24;14.60;87.90
72883;DHT22;61017;37.812;-122.286;2023-04-09T01:17:02;14.60;87.90
72883;DHT22;61017;37.812;-122.286;2023-04-09T01:18:41;14.60;87.90
72883;DHT22;61017;37.812;-122.286;2023-04-09T01:20:57;14.70;88.00
72883;DHT22;61017;37.812;-122.286;2023-04-09T01:22:47;14.60;87.80
72883;DHT22;61017;37.812;-122.286;2023-04-09T01:24:41;14.70;87.90
72883;DHT22;61017;37.812;-122.286;2023-04-09T01:28:18;14.60;87.80
72883;DHT22;61017;37.812;-122.286;2023-04-09T01:30:03;14.70;87.90
72883;DHT22;61017;37.812;-122.286;2023-04-09T01:31:59;14.60;87.80
72883;DHT22;61017;37.812;-122.286;2023-04-09T01:33:33;14.60;87.80
72883;DHT22;61017;37.812;-122.286;2023-04-09T01:35:06;14.60;87.90
72883;DHT22;61017;37.812;-122.286;2023-04-09T01:36:47;14.60;88.00
72883;DHT22;61017;37.812;-122.286;2023-04-09T01:38:21;14.60;87.90
72883;DHT22;61017;37.812;-122.286;2023-04-09T01:39:58;14.60;87.90
72883;DHT22;61017;37.812;-122.286;2023-04-09T01:41:32;14.60;87.80
72883;DHT22;61017;37.812;-122.286;2023-04-09T01:43:06;14.60;87.80
72883;DHT22;61017;37.812;-122.286;2023-04-09T01:44:39;14.60;88.60
72883;DHT22;61017;37.812;-122.286;2023-04-09T01:46:11;14.60;87.70
72883;DHT22;61017;37.812;-122.286;2023-04-09T01:47:43;14.60;87.70
72883;DHT22;61017;37.812;-122.286;2023-04-09T01:49:18;14.60;87.70
72883;DHT22;61017;37.812;-122.286;2023-04-09T01:50:53;14.60;87.70
72883;DHT22;61017;37.812;-122.286;2023-04-09T01:52:25;14.70;87.80
72883;DHT22;61017;37.812;-122.286;2023-04-09T01:54:03;14.60;87.70
72883;DHT22;61017;37.812;-122.286;2023-04-09T01:55:35;14.60;87.70
72883;DHT22;61017;37.812;-122.286;2023-04-09T01:57:14;14.60;87.80
72883;DHT22;61017;37.812;-122.286;2023-04-09T01:58:45;14.60;87.80
72883;DHT22;61017;37.812;-122.286;2023-04-09T02:00:17;14.60;87.80
72883;DHT22;61017;37.812;-122.286;2023-04-09T02:02:00;14.60;87.80
72883;DHT22;61017;37.812;-122.286;2023-04-09T02:04:01;14.60;87.80
72883;DHT22;61017;37.812;-122.286;2023-04-09T02:05:36;14.60;87.70
72883;DHT22;61017;37.812;-122.286;2023-04-09T02:07:37;14.60;87.70
72883;DHT22;61017;37.812;-122.286;2023-04-09T02:09:11;14.60;87.80
72883;DHT22;61017;37.812;-122.286;2023-04-09T02:10:50;14.60;87.80
72883;DHT22;61017;37.812;-122.286;2023-04-09T02:12:24;14.60;87.80
72883;DHT22;61017;37.812;-122.286;2023-04-09T02:13:57;14.60;87.80
72883;DHT22;61017;37.812;-122.286;2023-04-09T02:15:31;14.60;87.80
72883;DHT22;61017;37.812;-122.286;2023-04-09T02:17:11;14.60;87.80
72883;DHT22;61017;37.812;-122.286;2023-04-09T02:18:45;14.60;87.80
72883;DHT22;61017;37.812;-122.286;2023-04-09T02:20:17;14.60;87.90
72883;DHT22;61017;37.812;-122.286;2023-04-09T02:21:49;14.60;87.80
72883;DHT22;61017;37.812;-122.286;2023-04-09T02:23:21;14.60;87.80
72883;DHT22;61017;37.812;-122.286;2023-04-09T02:24:56;14.60;87.80
72883;DHT22;61017;37.812;-122.286;2023-04-09T02:26:27;14.60;87.80
72883;DHT22;61017;37.812;-122.286;2023-04-09T02:28:04;14.60;87.80
72883;DHT22;61017;37.812;-122.286;2023-04-09T02:29:36;14.60;87.80
72883;DHT22;61017;37.812;-122.286;2023-04-09T02:31:09;14.60;87.80
72883;DHT22;61017;37.812;-122.286;2023-04-09T02:32:41;14.60;87.70
72883;DHT22;61017;37.812;-122.286;2023-04-09T02:34:12;14.60;87.80
72883;DHT22;61017;37.812;-122.286;2023-04-09T02:35:44;14.60;87.80
72883;DHT22;61017;37.812;-122.286;2023-04-09T02:37:15;14.60;87.80
72883;DHT22;61017;37.812;-122.286;2023-04-09T02:38:47;14.60;87.80
72883;DHT22;61017;37.812;-122.286;2023-04-09T02:42:14;14.60;87.80
72883;DHT22;61017;37.812;-122.286;2023-04-09T02:43:45;14.60;87.70
72883;DHT22;61017;37.812;-122.286;2023-04-09T02:45:17;14.60;87.80
72883;DHT22;61017;37.812;-122.286;2023-04-09T02:46:50;14.60;87.70
72883;DHT22;61017;37.812;-122.286;2023-04-09T02:48:22;14.60;87.70
72883;DHT22;61017;37.812;-122.286;2023-04-09T02:49:54;14.60;87.80
72883;DHT22;61017;37.812;-122.286;2023-04-09T02:51:26;14.60;87.70
72883;DHT22;61017;37.812;-122.286;2023-04-09T02:52:58;14.60;87.70
72883;DHT22;61017;37.812;-122.286;2023-04-09T02:54:29;14.60;87.60
72883;DHT22;61017;37.812;-122.286;2023-04-09T02:56:01;14.60;87.50
72883;DHT22;61017;37.812;-122.286;2023-04-09T02:57:32;14.60;87.40
72883;DHT22;61017;37.812;-122.286;2023-04-09T02:59:04;14.60;87.50
72883;DHT22;61017;37.812;-122.286;2023-04-09T03:00:36;14.60;87.50
72883;DHT22;61017;37.812;-122.286;2023-04-09T03:02:09;14.60;87.50
72883;DHT22;61017;37.812;-122.286;2023-04-09T03:03:41;14.60;87.50
72883;DHT22;61017;37.812;-122.286;2023-04-09T03:05:13;14.60;87.40
72883;DHT22;61017;37.812;-122.286;2023-04-09T03:06:44;14.60;87.40
72883;DHT22;61017;37.812;-122.286;2023-04-09T03:08:16;14.60;87.40
72883;DHT22;61017;37.812;-122.286;2023-04-09T03:09:48;14.60;87.30
72883;DHT22;61017;37.812;-122.286;2023-04-09T03:11:20;14.60;87.30
72883;DHT22;61017;37.812;-122.286;2023-04-09T03:12:52;14.60;87.30
72883;DHT22;61017;37.812;-122.286;2023-04-09T03:14:23;14.60;87.30
72883;DHT22;61017;37.812;-122.286;2023-04-09T03:15:55;14.60;87.30
72883;DHT22;61017;37.812;-122.286;2023-04-09T03:17:27;14.60;87.20
72883;DHT22;61017;37.812;-122.286;2023-04-09T03:18:58;14.60;87.20
72883;DHT22;61017;37.812;-122.286;2023-04-09T03:20:31;14.60;87.30
72883;DHT22;61017;37.812;-122.286;2023-04-09T03:22:02;14.60;87.20
72883;DHT22;61017;37.812;-122.286;2023-04-09T03:23:34;14.60;87.30
72883;DHT22;61017;37.812;-122.286;2023-04-09T03:25:06;14.60;87.20
72883;DHT22;61017;37.812;-122.286;2023-04-09T03:26:38;14.60;87.20
72883;DHT22;61017;37.812;-122.286;2023-04-09T03:28:09;14.60;87.20
72883;DHT22;61017;37.812;-122.286;2023-04-09T03:29:41;14.60;87.20
72883;DHT22;61017;37.812;-122.286;2023-04-09T03:31:12;14.60;87.20
72883;DHT22;61017;37.812;-122.286;2023-04-09T03:32:44;14.60;87.20
72883;DHT22;61017;37.812;-122.286;2023-04-09T03:34:16;14.60;87.20
72883;DHT22;61017;37.812;-122.286;2023-04-09T03:35:47;14.60;87.10
72883;DHT22;61017;37.812;-122.286;2023-04-09T03:37:19;14.60;87.10
72883;DHT22;61017;37.812;-122.286;2023-04-09T03:38:50;14.60;87.10
72883;DHT22;61017;37.812;-122.286;2023-04-09T03:40:22;14.60;87.00
72883;DHT22;61017;37.812;-122.286;2023-04-09T03:41:53;14.60;87.00
72883;DHT22;61017;37.812;-122.286;2023-04-09T03:43:25;14.60;86.90
72883;DHT22;61017;37.812;-122.286;2023-04-09T03:44:57;14.60;86.90
72883;DHT22;61017;37.812;-122.286;2023-04-09T03:46:29;14.60;86.90
72883;DHT22;61017;37.812;-122.286;2023-04-09T03:48:00;14.60;86.90
72883;DHT22;61017;37.812;-122.286;2023-04-09T03:49:34;14.60;87.70
72883;DHT22;61017;37.812;-122.286;2023-04-09T03:51:09;14.60;86.80
72883;DHT22;61017;37.812;-122.286;2023-04-09T03:52:41;14.60;86.80
72883;DHT22;61017;37.812;-122.286;2023-04-09T03:54:12;14.60;86.90
72883;DHT22;61017;37.812;-122.286;2023-04-09T03:55:44;14.60;86.90
72883;DHT22;61017;37.812;-122.286;2023-04-09T03:57:15;14.60;86.90
72883;DHT22;61017;37.812;-122.286;2023-04-09T03:58:47;14.60;86.90
72883;DHT22;61017;37.812;-122.286;2023-04-09T04:00:19;14.60;86.80
72883;DHT22;61017;37.812;-122.286;2023-04-09T04:01:50;14.60;86.80
72883;DHT22;61017;37.812;-122.286;2023-04-09T04:03:22;14.60;86.80
72883;DHT22;61017;37.812;-122.286;2023-04-09T04:04:53;14.60;86.70
72883;DHT22;61017;37.812;-122.286;2023-04-09T04:06:25;14.60;86.80
72883;DHT22;61017;37.812;-122.286;2023-04-09T04:07:56;14.60;86.70
72883;DHT22;61017;37.812;-122.286;2023-04-09T04:09:28;14.60;86.80
72883;DHT22;61017;37.812;-122.286;2023-04-09T04:11:03;14.60;86.70
72883;DHT22;61017;37.812;-122.286;2023-04-09T04:12:34;14.60;86.80
72883;DHT22;61017;37.812;-122.286;2023-04-09T04:14:06;14.60;86.70
72883;DHT22;61017;37.812;-122.286;2023-04-09T04:15:41;14.60;86.70
72883;DHT22;61017;37.812;-122.286;2023-04-09T04:17:12;14.60;86.80
72883;DHT22;61017;37.812;-122.286;2023-04-09T04:18:44;14.60;86.70
72883;DHT22;61017;37.812;-122.286;2023-04-09T04:20:16;14.60;86.70
72883;DHT22;61017;37.812;-122.286;2023-04-09T04:21:47;14.60;86.70
72883;DHT22;61017;37.812;-122.286;2023-04-09T04:23:19;14.60;86.70
72883;DHT22;61017;37.812;-122.286;2023-04-09T04:24:53;14.60;86.70
72883;DHT22;61017;37.812;-122.286;2023-04-09T04:26:25;14.60;86.70
72883;DHT22;61017;37.812;-122.286;2023-04-09T04:27:56;14.60;86.60
72883;DHT22;61017;37.812;-122.286;2023-04-09T04:29:28;14.60;86.60
72883;DHT22;61017;37.812;-122.286;2023-04-09T04:30:59;14.60;86.60
72883;DHT22;61017;37.812;-122.286;2023-04-09T04:32:31;14.60;86.50
72883;DHT22;61017;37.812;-122.286;2023-04-09T04:34:03;14.60;86.50
72883;DHT22;61017;37.812;-122.286;2023-04-09T04:35:34;14.60;86.50
72883;DHT22;61017;37.812;-122.286;2023-04-09T04:37:13;14.60;86.50
72883;DHT22;61017;37.812;-122.286;2023-04-09T04:38:47;14.60;86.50
72883;DHT22;61017;37.812;-122.286;2023-04-09T04:40:19;14.60;86.50
72883;DHT22;61017;37.812;-122.286;2023-04-09T04:41:50;14.60;86.50
72883;DHT22;61017;37.812;-122.286;2023-04-09T04:43:22;14.60;86.40
72883;DHT22;61017;37.812;-122.286;2023-04-09T04:44:55;14.60;86.50
72883;DHT22;61017;37.812;-122.286;2023-04-09T04:46:26;14.60;86.40
72883;DHT22;61017;37.812;-122.286;2023-04-09T04:47:58;14.60;86.40
72883;DHT22;61017;37.812;-122.286;2023-04-09T04:49:29;14.60;86.50
72883;DHT22;61017;37.812;-122.286;2023-04-09T04:51:01;14.60;86.40
72883;DHT22;61017;37.812;-122.286;2023-04-09T04:52:33;14.60;86.50
72883;DHT22;61017;37.812;-122.286;2023-04-09T04:54:04;14.60;86.50
72883;DHT22;61017;37.812;-122.286;2023-04-09T04:55:36;14.60;86.50
72883;DHT22;61017;37.812;-122.286;2023-04-09T04:57:08;14.60;86.50
72883;DHT22;61017;37.812;-122.286;2023-04-09T04:58:39;14.60;86.50
72883;DHT22;61017;37.812;-122.286;2023-04-09T05:00:12;14.60;86.50
72883;DHT22;61017;37.812;-122.286;2023-04-09T05:01:43;14.60;86.50
72883;DHT22;61017;37.812;-122.286;2023-04-09T05:03:15;14.60;86.50
72883;DHT22;61017;37.812;-122.286;2023-04-09T05:04:46;14.60;86.50
72883;DHT22;61017;37.812;-122.286;2023-04-09T05:06:18;14.60;86.50
72883;DHT22;61017;37.812;-122.286;2023-04-09T05:07:49;14.60;86.60
72883;DHT22;61017;37.812;-122.286;2023-04-09T05:09:21;14.60;86.40
72883;DHT22;61017;37.812;-122.286;2023-04-09T05:10:52;14.60;86.50
72883;DHT22;61017;37.812;-122.286;2023-04-09T05:12:24;14.60;86.40
72883;DHT22;61017;37.812;-122.286;2023-04-09T05:13:56;14.60;86.40
72883;DHT22;61017;37.812;-122.286;2023-04-09T05:15:27;14.60;86.40
72883;DHT22;61017;37.812;-122.286;2023-04-09T05:16:59;14.60;86.40
72883;DHT22;61017;37.812;-122.286;2023-04-09T05:18:30;14.60;86.40
72883;DHT22;61017;37.812;-122.286;2023-04-09T05:20:02;14.60;86.40
72883;DHT22;61017;37.812;-122.286;2023-04-09T05:21:33;14.60;86.40
72883;DHT22;61017;37.812;-122.286;2023-04-09T05:23:05;14.60;86.40
72883;DHT22;61017;37.812;-122.286;2023-04-09T05:24:37;14.60;86.40
72883;DHT22;61017;37.812;-122.286;2023-04-09T05:26:08;14.60;86.40
72883;DHT22;61017;37.812;-122.286;2023-04-09T05:28:00;14.60;86.40
72883;DHT22;61017;37.812;-122.286;2023-04-09T05:29:31;14.60;86.30
72883;DHT22;61017;37.812;-122.286;2023-04-09T05:31:03;14.60;86.30
72883;DHT22;61017;37.812;-122.286;2023-04-09T05:32:34;14.60;86.40
72883;DHT22;61017;37.812;-122.286;2023-04-09T05:34:06;14.60;86.30
72883;DHT22;61017;37.812;-122.286;2023-04-09T05:35:38;14.60;86.40
72883;DHT22;61017;37.812;-122.286;2023-04-09T05:37:09;14.60;86.40
72883;DHT22;61017;37.812;-122.286;2023-04-09T05:38:41;14.60;86.40
72883;DHT22;61017;37.812;-122.286;2023-04-09T05:40:13;14.60;86.40
72883;DHT22;61017;37.812;-122.286;2023-04-09T05:41:45;14.60;86.40
72883;DHT22;61017;37.812;-122.286;2023-04-09T05:43:16;14.60;86.50
72883;DHT22;61017;37.812;-122.286;2023-04-09T05:44:48;14.60;86.50
72883;DHT22;61017;37.812;-122.286;2023-04-09T05:46:19;14.60;86.40
72883;DHT22;61017;37.812;-122.286;2023-04-09T05:47:51;14.60;86.40
72883;DHT22;61017;37.812;-122.286;2023-04-09T05:49:23;14.60;86.50
72883;DHT22;61017;37.812;-122.286;2023-04-09T05:50:54;14.60;86.40
72883;DHT22;61017;37.812;-122.286;2023-04-09T05:52:26;14.60;86.40
72883;DHT22;61017;37.812;-122.286;2023-04-09T05:53:57;14.60;86.40
72883;DHT22;61017;37.812;-122.286;2023-04-09T05:55:30;14.60;86.40
72883;DHT22;61017;37.812;-122.286;2023-04-09T05:57:02;14.60;86.40
72883;DHT22;61017;37.812;-122.286;2023-04-09T05:58:34;14.60;86.40
72883;DHT22;61017;37.812;-122.286;2023-04-09T06:00:06;14.60;86.40
72883;DHT22;61017;37.812;-122.286;2023-04-09T06:01:38;14.60;86.50
72883;DHT22;61017;37.812;-122.286;2023-04-09T06:03:09;14.60;86.40
72883;DHT22;61017;37.812;-122.286;2023-04-09T06:04:41;14.60;86.40
72883;DHT22;61017;37.812;-122.286;2023-04-09T06:06:13;14.60;86.40
72883;DHT22;61017;37.812;-122.286;2023-04-09T06:07:44;14.60;86.40
72883;DHT22;61017;37.812;-122.286;2023-04-09T06:09:16;14.60;86.50
72883;DHT22;61017;37.812;-122.286;2023-04-09T06:10:47;14.60;86.40
72883;DHT22;61017;37.812;-122.286;2023-04-09T06:12:19;14.60;86.50
72883;DHT22;61017;37.812;-122.286;2023-04-09T06:13:51;14.60;86.40
72883;DHT22;61017;37.812;-122.286;2023-04-09T06:15:22;14.60;86.40
72883;DHT22;61017;37.812;-122.286;2023-04-09T06:16:54;14.60;86.40
72883;DHT22;61017;37.812;-122.286;2023-04-09T06:18:25;14.60;86.50
72883;DHT22;61017;37.812;-122.286;2023-04-09T06:19:57;14.60;86.40
72883;DHT22;61017;37.812;-122.286;2023-04-09T06:21:28;14.60;86.50
72883;DHT22;61017;37.812;-122.286;2023-04-09T06:23:00;14.60;86.40
72883;DHT22;61017;37.812;-122.286;2023-04-09T06:24:31;14.60;86.50
72883;DHT22;61017;37.812;-122.286;2023-04-09T06:26:03;14.60;86.40
72883;DHT22;61017;37.812;-122.286;2023-04-09T06:27:35;14.60;86.40
72883;DHT22;61017;37.812;-122.286;2023-04-09T06:29:06;14.60;86.40
72883;DHT22;61017;37.812;-122.286;2023-04-09T06:30:38;14.60;86.40
72883;DHT22;61017;37.812;-122.286;2023-04-09T06:32:09;14.60;86.50
72883;DHT22;61017;37.812;-122.286;2023-04-09T06:33:41;14.60;86.40
72883;DHT22;61017;37.812;-122.286;2023-04-09T06:35:13;14.60;86.50
72883;DHT22;61017;37.812;-122.286;2023-04-09T06:36:45;14.60;86.40
72883;DHT22;61017;37.812;-122.286;2023-04-09T06:38:16;14.60;86.60
72883;DHT22;61017;37.812;-122.286;2023-04-09T06:39:48;14.60;86.40
72883;DHT22;61017;37.812;-122.286;2023-04-09T06:41:20;14.60;86.40
72883;DHT22;61017;37.812;-122.286;2023-04-09T06:42:52;14.60;86.50
72883;DHT22;61017;37.812;-122.286;2023-04-09T06:44:23;14.60;86.50
72883;DHT22;61017;37.812;-122.286;2023-04-09T06:45:55;14.60;86.40
72883;DHT22;61017;37.812;-122.286;2023-04-09T06:47:27;14.60;86.50
72883;DHT22;61017;37.812;-122.286;2023-04-09T06:48:58;14.60;86.50
72883;DHT22;61017;37.812;-122.286;2023-04-09T06:50:30;14.60;86.40
72883;DHT22;61017;37.812;-122.286;2023-04-09T06:52:01;14.60;86.50
72883;DHT22;61017;37.812;-122.286;2023-04-09T06:53:33;14.60;86.50
72883;DHT22;61017;37.812;-122.286;2023-04-09T06:55:05;14.60;86.50
72883;DHT22;61017;37.812;-122.286;2023-04-09T06:56:36;14.60;86.60
72883;DHT22;61017;37.812;-122.286;2023-04-09T06:58:08;14.60;86.50
72883;DHT22;61017;37.812;-122.286;2023-04-09T06:59:40;14.60;86.50
72883;DHT22;61017;37.812;-122.286;2023-04-09T07:01:12;14.60;86.50
72883;DHT22;61017;37.812;-122.286;2023-04-09T07:02:45;14.60;86.50
72883;DHT22;61017;37.812;-122.286;2023-04-09T07:04:17;14.60;86.50
72883;DHT22;61017;37.812;-122.286;2023-04-09T07:05:49;14.60;86.50
72883;DHT22;61017;37.812;-122.286;2023-04-09T07:07:20;14.60;86.50
72883;DHT22;61017;37.812;-122.286;2023-04-09T07:08:52;14.60;86.50
72883;DHT22;61017;37.812;-122.286;2023-04-09T07:10:23;14.60;86.50
72883;DHT22;61017;37.812;-122.286;2023-04-09T07:11:55;14.60;86.50
72883;DHT22;61017;37.812;-122.286;2023-04-09T07:13:26;14.60;86.50
72883;DHT22;61017;37.812;-122.286;2023-04-09T07:14:59;14.60;86.50
72883;DHT22;61017;37.812;-122.286;2023-04-09T07:16:31;14.60;86.60
72883;DHT22;61017;37.812;-122.286;2023-04-09T07:18:02;14.60;86.50
72883;DHT22;61017;37.812;-122.286;2023-04-09T07:19:34;14.60;86.50
72883;DHT22;61017;37.812;-122.286;2023-04-09T07:21:05;14.50;86.40
72883;DHT22;61017;37.812;-122.286;2023-04-09T07:22:37;14.60;86.50
72883;DHT22;61017;37.812;-122.286;2023-04-09T07:24:09;14.60;86.50
72883;DHT22;61017;37.812;-122.286;2023-04-09T07:25:44;14.50;86.40
72883;DHT22;61017;37.812;-122.286;2023-04-09T07:27:15;14.60;86.50
72883;DHT22;61017;37.812;-122.286;2023-04-09T07:28:47;14.60;86.50
72883;DHT22;61017;37.812;-122.286;2023-04-09T07:30:18;14.60;86.50
72883;DHT22;61017;37.812;-122.286;2023-04-09T07:31:50;14.60;86.50
72883;DHT22;61017;37.812;-122.286;2023-04-09T07:33:22;14.60;86.50
72883;DHT22;61017;37.812;-122.286;2023-04-09T07:34:54;14.60;86.50
72883;DHT22;61017;37.812;-122.286;2023-04-09T07:36:26;14.50;86.40
72883;DHT22;61017;37.812;-122.286;2023-04-09T07:37:57;14.60;86.50
72883;DHT22;61017;37.812;-122.286;2023-04-09T07:39:29;14.50;86.40
72883;DHT22;61017;37.812;-122.286;2023-04-09T07:41:00;14.60;86.50
72883;DHT22;61017;37.812;-122.286;2023-04-09T07:42:32;14.60;86.50
72883;DHT22;61017;37.812;-122.286;2023-04-09T07:44:04;14.60;86.50
72883;DHT22;61017;37.812;-122.286;2023-04-09T07:45:36;14.60;86.50
72883;DHT22;61017;37.812;-122.286;2023-04-09T07:47:08;14.50;86.40
72883;DHT22;61017;37.812;-122.286;2023-04-09T07:48:42;14.50;86.30
72883;DHT22;61017;37.812;-122.286;2023-04-09T07:50:13;14.60;86.50
72883;DHT22;61017;37.812;-122.286;2023-04-09T07:51:45;14.50;86.40
72883;DHT22;61017;37.812;-122.286;2023-04-09T07:53:17;14.50;86.30
72883;DHT22;61017;37.812;-122.286;2023-04-09T07:54:48;14.60;86.40
72883;DHT22;61017;37.812;-122.286;2023-04-09T07:56:20;14.50;86.30
72883;DHT22;61017;37.812;-122.286;2023-04-09T07:57:52;14.60;86.40
72883;DHT22;61017;37.812;-122.286;2023-04-09T07:59:27;14.60;86.40
72883;DHT22;61017;37.812;-122.286;2023-04-09T08:01:04;14.60;86.40
72883;DHT22;61017;37.812;-122.286;2023-04-09T08:02:35;14.60;86.30
72883;DHT22;61017;37.812;-122.286;2023-04-09T08:04:07;14.60;86.40
72883;DHT22;61017;37.812;-122.286;2023-04-09T08:05:39;14.60;86.40
72883;DHT22;61017;37.812;-122.286;2023-04-09T08:07:10;14.60;86.30
72883;DHT22;61017;37.812;-122.286;2023-04-09T08:08:48;14.50;86.30
72883;DHT22;61017;37.812;-122.286;2023-04-09T08:10:19;14.50;86.40
72883;DHT22;61017;37.812;-122.286;2023-04-09T08:11:51;14.50;86.30
72883;DHT22;61017;37.812;-122.286;2023-04-09T08:13:23;14.60;86.30
72883;DHT22;61017;37.812;-122.286;2023-04-09T08:14:54;14.50;86.20
72883;DHT22;61017;37.812;-122.286;2023-04-09T08:16:27;14.50;86.20
72883;DHT22;61017;37.812;-122.286;2023-04-09T08:17:59;14.50;86.30
72883;DHT22;61017;37.812;-122.286;2023-04-09T08:19:30;14.60;86.30
72883;DHT22;61017;37.812;-122.286;2023-04-09T08:21:04;14.50;86.20
72883;DHT22;61017;37.812;-122.286;2023-04-09T08:22:38;14.50;86.20
72883;DHT22;61017;37.812;-122.286;2023-04-09T08:24:12;14.50;86.10
72883;DHT22;61017;37.812;-122.286;2023-04-09T08:25:44;14.50;86.10
72883;DHT22;61017;37.812;-122.286;2023-04-09T08:27:18;14.50;86.20
72883;DHT22;61017;37.812;-122.286;2023-04-09T08:28:50;14.50;86.10
72883;DHT22;61017;37.812;-122.286;2023-04-09T08:30:21;14.50;86.10
72883;DHT22;61017;37.812;-122.286;2023-04-09T08:31:53;14.50;86.10
72883;DHT22;61017;37.812;-122.286;2023-04-09T08:33:26;14.50;86.10
72883;DHT22;61017;37.812;-122.286;2023-04-09T08:34:58;14.50;86.10
72883;DHT22;61017;37.812;-122.286;2023-04-09T08:36:30;14.50;86.00
72883;DHT22;61017;37.812;-122.286;2023-04-09T08:38:01;14.50;86.00
72883;DHT22;61017;37.812;-122.286;2023-04-09T08:39:33;14.50;86.00
72883;DHT22;61017;37.812;-122.286;2023-04-09T08:41:05;14.50;86.00
72883;DHT22;61017;37.812;-122.286;2023-04-09T08:42:43;14.50;86.00
72883;DHT22;61017;37.812;-122.286;2023-04-09T08:44:14;14.50;86.00
72883;DHT22;61017;37.812;-122.286;2023-04-09T08:45:46;14.50;86.00
72883;DHT22;61017;37.812;-122.286;2023-04-09T08:47:19;14.50;86.00
72883;DHT22;61017;37.812;-122.286;2023-04-09T08:48:51;14.50;86.00
72883;DHT22;61017;37.812;-122.286;2023-04-09T08:50:23;14.50;85.90
72883;DHT22;61017;37.812;-122.286;2023-04-09T08:51:54;14.50;85.90
72883;DHT22;61017;37.812;-122.286;2023-04-09T08:53:26;14.50;85.80
72883;DHT22;61017;37.812;-122.286;2023-04-09T08:54:57;14.50;85.90
72883;DHT22;61017;37.812;-122.286;2023-04-09T08:56:29;14.50;85.90
72883;DHT22;61017;37.812;-122.286;2023-04-09T08:58:04;14.50;85.80
72883;DHT22;61017;37.812;-122.286;2023-04-09T08:59:35;14.50;85.80
72883;DHT22;61017;37.812;-122.286;2023-04-09T09:01:27;14.50;85.90
72883;DHT22;61017;37.812;-122.286;2023-04-09T09:04:47;14.50;85.80
72883;DHT22;61017;37.812;-122.286;2023-04-09T09:06:27;14.50;85.90
72883;DHT22;61017;37.812;-122.286;2023-04-09T09:07:59;14.50;85.80
72883;DHT22;61017;37.812;-122.286;2023-04-09T09:09:30;14.50;85.80
72883;DHT22;61017;37.812;-122.286;2023-04-09T09:11:02;14.50;85.80
72883;DHT22;61017;37.812;-122.286;2023-04-09T09:12:41;14.50;85.70
72883;DHT22;61017;37.812;-122.286;2023-04-09T09:14:17;14.50;85.80
72883;DHT22;61017;37.812;-122.286;2023-04-09T09:15:54;14.50;85.70
72883;DHT22;61017;37.812;-122.286;2023-04-09T09:17:58;14.50;85.80
72883;DHT22;61017;37.812;-122.286;2023-04-09T09:19:31;14.50;85.80
72883;DHT22;61017;37.812;-122.286;2023-04-09T09:21:11;14.50;85.70
72883;DHT22;61017;37.812;-122.286;2023-04-09T09:22:51;14.50;85.80
72883;DHT22;61017;37.812;-122.286;2023-04-09T09:24:22;14.50;85.80
72883;DHT22;61017;37.812;-122.286;2023-04-09T09:25:54;14.50;85.80
72883;DHT22;61017;37.812;-122.286;2023-04-09T09:27:36;14.50;85.70
72883;DHT22;61017;37.812;-122.286;2023-04-09T09:29:08;14.50;85.70
72883;DHT22;61017;37.812;-122.286;2023-04-09T09:30:40;14.50;85.60
72883;DHT22;61017;37.812;-122.286;2023-04-09T09:32:12;14.50;85.70